createdAt,value
2016-05-23T00:00:26.450Z,93.98
2016-05-23T00:01:26.484Z,94.55
2016-05-23T00:02:26.362Z,94.74
2016-05-23T00:03:26.411Z,94.55
2016-05-23T00:04:26.601Z,94.64
2016-05-23T00:05:26.636Z,95.79
2016-05-23T00:06:26.669Z,95.22
2016-05-23T00:07:26.703Z,95.31
2016-05-23T00:08:26.753Z,95.89
2016-05-23T00:09:26.787Z,96.56
2016-05-23T00:10:26.821Z,96.47
2016-05-23T00:11:26.855Z,95.41
2016-05-23T00:12:26.889Z,94.93
2016-05-23T00:13:26.938Z,94.74
2016-05-23T00:14:27.159Z,93.98
2016-05-23T00:15:27.005Z,93.88
2016-05-23T00:16:26.900Z,93.78
2016-05-23T00:17:27.074Z,93.11
2016-05-23T00:18:26.967Z,93.93
2016-05-23T00:19:27.158Z,94.35
2016-05-23T00:20:27.191Z,94.55
2016-05-23T00:21:27.226Z,94.35
2016-05-23T00:22:27.259Z,94.26
2016-05-23T00:23:27.310Z,94.35
2016-05-23T00:24:27.343Z,93.78
2016-05-23T00:25:27.376Z,94.55
2016-05-23T00:26:27.411Z,94.55
2016-05-23T00:27:27.444Z,94.64
2016-05-23T00:28:27.495Z,94.17
2016-05-23T00:29:27.856Z,94.55
2016-05-23T00:30:27.562Z,94.26
2016-05-23T00:31:27.596Z,94.07
2016-05-23T00:32:27.630Z,93.69
2016-05-23T00:33:27.664Z,93.78
2016-05-23T00:34:27.557Z,95.12
2016-05-23T00:35:27.747Z,94.74
2016-05-23T00:36:27.781Z,95.6
2016-05-23T00:37:27.659Z,95.89
2016-05-23T00:38:27.850Z,95.7
2016-05-23T00:39:27.899Z,96.56
2016-05-23T00:40:27.933Z,96.08
2016-05-23T00:41:27.966Z,96.08
2016-05-23T00:42:28.000Z,96.37
2016-05-23T00:43:28.035Z,96.37
2016-05-23T00:44:27.928Z,96.27
2016-05-23T00:45:28.118Z,96.27
2016-05-23T00:46:28.152Z,96.08
2016-05-23T00:47:28.186Z,96.27
2016-05-23T00:48:28.219Z,96.27
2016-05-23T00:49:28.254Z,96.27
2016-05-23T00:50:28.304Z,96.56
2016-05-23T00:51:28.338Z,96.56
2016-05-23T00:52:28.371Z,96.37
2016-05-23T00:53:28.248Z,96.27
2016-05-23T00:54:28.455Z,96.18
2016-05-23T00:55:28.488Z,96.08
2016-05-23T00:56:28.522Z,96.18
2016-05-23T00:57:28.557Z,96.18
2016-05-23T00:58:28.606Z,97.23
2016-05-23T00:59:29.203Z,96.84
2016-05-23T01:00:28.517Z,96.56
2016-05-23T01:01:28.709Z,97.04
2016-05-23T01:02:28.742Z,97.23
2016-05-23T01:03:28.775Z,95.98
2016-05-23T01:04:28.826Z,96.18
2016-05-23T01:05:28.859Z,96.08
2016-05-23T01:06:28.893Z,96.08
2016-05-23T01:07:28.927Z,95.6
2016-05-23T01:08:28.961Z,95.31
2016-05-23T01:09:29.011Z,95.22
2016-05-23T01:10:29.044Z,95.41
2016-05-23T01:11:29.078Z,95.41
2016-05-23T01:12:29.113Z,95.98
2016-05-23T01:13:28.991Z,95.89
2016-05-23T01:14:29.164Z,96.27
2016-05-23T01:15:29.230Z,96.18
2016-05-23T01:16:29.264Z,96.66
2016-05-23T01:17:29.297Z,96.18
2016-05-23T01:18:29.332Z,96.27
2016-05-23T01:19:29.366Z,95.89
2016-05-23T01:20:29.416Z,95.31
2016-05-23T01:21:29.449Z,95.98
2016-05-23T01:22:29.327Z,96.18
2016-05-23T01:23:29.517Z,96.56
2016-05-23T01:24:29.566Z,96.08
2016-05-23T01:25:29.601Z,96.08
2016-05-23T01:26:29.634Z,96.37
2016-05-23T01:27:29.669Z,96.18
2016-05-23T01:28:29.702Z,95.98
2016-05-23T01:29:30.001Z,96.08
2016-05-23T01:30:29.786Z,96.18
2016-05-23T01:31:29.820Z,95.79
2016-05-23T01:32:29.854Z,95.89
2016-05-23T01:33:29.903Z,96.08
2016-05-23T01:34:29.922Z,96.37
2016-05-23T01:35:29.956Z,96.08
2016-05-23T01:36:30.005Z,96.08
2016-05-23T01:37:30.039Z,95.98
2016-05-23T01:38:30.088Z,96.18
2016-05-23T01:39:30.107Z,96.18
2016-05-23T01:40:30.156Z,96.37
2016-05-23T01:41:30.175Z,96.37
2016-05-23T01:42:30.225Z,96.08
2016-05-23T01:43:30.102Z,96.08
2016-05-23T01:44:30.136Z,96.47
2016-05-23T01:45:30.327Z,95.98
2016-05-23T01:46:30.375Z,95.89
2016-05-23T01:47:30.394Z,95.7
2016-05-23T01:48:30.444Z,95.79
2016-05-23T01:49:30.477Z,96.27
2016-05-23T01:50:30.511Z,96.27
2016-05-23T01:51:30.546Z,96.08
2016-05-23T01:52:30.595Z,96.08
2016-05-23T01:53:30.629Z,96.47
2016-05-23T01:54:30.663Z,95.98
2016-05-23T01:55:30.697Z,96.08
2016-05-23T01:56:30.731Z,95.7
2016-05-23T01:57:30.780Z,96.37
2016-05-23T01:58:30.799Z,95.98
2016-05-23T01:59:30.864Z,95.98
2016-05-23T02:00:30.882Z,96.27
2016-05-23T02:01:30.915Z,96.08
2016-05-23T02:02:30.951Z,95.98
2016-05-23T02:03:31.000Z,96.47
2016-05-23T02:04:31.033Z,96.27
2016-05-23T02:05:31.068Z,96.37
2016-05-23T02:06:31.101Z,96.27
2016-05-23T02:07:31.135Z,96.32
2016-05-23T02:08:31.201Z,96.08
2016-05-23T02:09:31.220Z,96.47
2016-05-23T02:10:31.253Z,96.37
2016-05-23T02:11:31.287Z,95.79
2016-05-23T02:12:31.164Z,96.18
2016-05-23T02:13:31.354Z,96.8
2016-05-23T02:14:31.826Z,96.42
2016-05-23T02:15:31.282Z,96.32
2016-05-23T02:16:31.472Z,96.03
2016-05-23T02:17:31.505Z,95.94
2016-05-23T02:18:31.555Z,96.42
2016-05-23T02:19:31.574Z,96.42
2016-05-23T02:20:31.624Z,96.8
2016-05-23T02:21:31.658Z,96.61
2016-05-23T02:22:31.691Z,96.8
2016-05-23T02:23:31.725Z,97.28
2016-05-23T02:24:31.791Z,98.05
2016-05-23T02:25:31.793Z,97.56
2016-05-23T02:26:31.843Z,97.56
2016-05-23T02:27:31.877Z,98.24
2016-05-23T02:28:31.926Z,98.43
2016-05-23T02:29:32.226Z,98.24
2016-05-23T02:30:31.979Z,98.24
2016-05-23T02:31:32.028Z,98.52
2016-05-23T02:32:32.079Z,98.43
2016-05-23T02:33:32.096Z,98.62
2016-05-23T02:34:32.130Z,97.95
2016-05-23T02:35:32.164Z,98.33
2016-05-23T02:36:32.213Z,97.95
2016-05-23T02:37:32.248Z,97.75
2016-05-23T02:38:32.281Z,97.75
2016-05-23T02:39:32.315Z,96.8
2016-05-23T02:40:32.349Z,97.18
2016-05-23T02:41:32.384Z,97.09
2016-05-23T02:42:32.417Z,96.99
2016-05-23T02:43:32.451Z,96.8
2016-05-23T02:44:32.500Z,97.09
2016-05-23T02:45:32.534Z,96.89
2016-05-23T02:46:32.412Z,97.09
2016-05-23T02:47:32.446Z,97.09
2016-05-23T02:48:32.636Z,97.09
2016-05-23T02:49:32.686Z,97.18
2016-05-23T02:50:32.720Z,97.56
2016-05-23T02:51:32.754Z,97.66
2016-05-23T02:52:32.803Z,97.47
2016-05-23T02:53:32.821Z,97.47
2016-05-23T02:54:32.871Z,97.47
2016-05-23T02:55:32.905Z,97.56
2016-05-23T02:56:32.939Z,97.66
2016-05-23T02:57:32.833Z,96.99
2016-05-23T02:58:33.007Z,97.18
2016-05-23T02:59:33.400Z,96.8
2016-05-23T03:00:33.074Z,96.03
2016-05-23T03:01:33.124Z,96.13
2016-05-23T03:02:33.159Z,96.03
2016-05-23T03:03:33.192Z,95.65
2016-05-23T03:04:33.226Z,95.94
2016-05-23T03:05:33.275Z,94.98
2016-05-23T03:06:33.294Z,95.94
2016-05-23T03:07:33.343Z,95.65
2016-05-23T03:08:33.378Z,95.56
2016-05-23T03:09:33.411Z,95.65
2016-05-23T03:10:33.445Z,96.13
2016-05-23T03:11:33.479Z,96.03
2016-05-23T03:12:33.514Z,96.03
2016-05-23T03:13:33.563Z,96.32
2016-05-23T03:14:33.597Z,96.03
2016-05-23T03:15:33.631Z,96.03
2016-05-23T03:16:33.665Z,95.94
2016-05-23T03:17:33.699Z,96.13
2016-05-23T03:18:33.747Z,96.8
2016-05-23T03:19:33.767Z,96.42
2016-05-23T03:20:33.816Z,96.32
2016-05-23T03:21:33.850Z,96.22
2016-05-23T03:22:33.884Z,95.75
2016-05-23T03:23:33.918Z,95.75
2016-05-23T03:24:33.952Z,95.84
2016-05-23T03:25:34.002Z,95.84
2016-05-23T03:26:34.036Z,95.94
2016-05-23T03:27:34.069Z,96.22
2016-05-23T03:28:34.103Z,96.13
2016-05-23T03:29:33.981Z,96.03
2016-05-23T03:30:34.187Z,95.94
2016-05-23T03:31:34.221Z,96.13
2016-05-23T03:32:34.254Z,95.84
2016-05-23T03:33:34.288Z,95.94
2016-05-23T03:34:34.322Z,95.94
2016-05-23T03:35:34.357Z,95.94
2016-05-23T03:36:34.406Z,96.42
2016-05-23T03:37:34.440Z,96.22
2016-05-23T03:38:34.317Z,95.65
2016-05-23T03:39:34.508Z,95.75
2016-05-23T03:40:34.542Z,95.75
2016-05-23T03:41:34.576Z,95.56
2016-05-23T03:42:34.625Z,95.07
2016-05-23T03:43:34.659Z,94.89
2016-05-23T03:44:34.537Z,95.17
2016-05-23T03:45:34.727Z,95.65
2016-05-23T03:46:34.777Z,95.84
2016-05-23T03:47:34.638Z,95.36
2016-05-23T03:48:34.845Z,95.17
2016-05-23T03:49:34.878Z,95.17
2016-05-23T03:50:34.913Z,95.36
2016-05-23T03:51:34.947Z,94.79
2016-05-23T03:52:34.980Z,95.07
2016-05-23T03:53:35.014Z,95.94
2016-05-23T03:54:34.892Z,95.65
2016-05-23T03:55:35.098Z,95.75
2016-05-23T03:56:35.132Z,95.56
2016-05-23T03:57:35.182Z,95.65
2016-05-23T03:58:35.199Z,95.46
2016-05-23T03:59:35.233Z,94.5
2016-05-23T04:00:35.268Z,94.4
2016-05-23T04:01:35.160Z,95.17
2016-05-23T04:02:35.366Z,95.56
2016-05-23T04:03:35.229Z,95.75
2016-05-23T04:04:35.419Z,95.84
2016-05-23T04:05:35.328Z,95.84
2016-05-23T04:06:35.346Z,95.98
2016-05-23T04:07:35.537Z,96.27
2016-05-23T04:08:35.571Z,96.37
2016-05-23T04:09:35.448Z,96.08
2016-05-23T04:10:35.638Z,96.08
2016-05-23T04:11:35.687Z,95.94
2016-05-23T04:12:35.722Z,96.42
2016-05-23T04:13:35.756Z,95.84
2016-05-23T04:14:35.806Z,95.27
2016-05-23T04:15:35.839Z,94.6
2016-05-23T04:16:35.873Z,94.21
2016-05-23T04:17:35.892Z,93.54
2016-05-23T04:18:35.941Z,93.16
2016-05-23T04:19:35.975Z,93.07
2016-05-23T04:20:36.009Z,93.26
2016-05-23T04:21:36.042Z,93.16
2016-05-23T04:22:36.092Z,92.4
2016-05-23T04:23:36.127Z,92.44
2016-05-23T04:24:36.160Z,92.15
2016-05-23T04:25:36.194Z,92.15
2016-05-23T04:26:36.244Z,91.58
2016-05-23T04:27:36.263Z,91.19
2016-05-23T04:28:36.155Z,91
2016-05-23T04:29:36.768Z,90.72
2016-05-23T04:30:36.379Z,91
2016-05-23T04:31:36.413Z,91
2016-05-23T04:32:36.446Z,90.81
2016-05-23T04:33:36.496Z,91.58
2016-05-23T04:34:36.531Z,91.58
2016-05-23T04:35:36.409Z,90.81
2016-05-23T04:36:36.599Z,90.81
2016-05-23T04:37:36.632Z,91.19
2016-05-23T04:38:36.682Z,91
2016-05-23T04:39:36.716Z,90.33
2016-05-23T04:40:36.750Z,90.62
2016-05-23T04:41:36.784Z,90.81
2016-05-23T04:42:36.834Z,90.81
2016-05-23T04:43:36.852Z,90.72
2016-05-23T04:44:37.433Z,90.72
2016-05-23T04:45:36.936Z,91.1
2016-05-23T04:46:36.970Z,90.72
2016-05-23T04:47:37.003Z,90.91
2016-05-23T04:48:37.037Z,91.67
2016-05-23T04:49:37.087Z,92.25
2016-05-23T04:50:37.121Z,92.3
2016-05-23T04:51:36.999Z,93.02
2016-05-23T04:52:37.204Z,93.21
2016-05-23T04:53:37.223Z,93.21
2016-05-23T04:54:37.256Z,93.49
2016-05-23T04:55:37.306Z,93.74
2016-05-23T04:56:37.341Z,92.01
2016-05-23T04:57:37.375Z,91.49
2016-05-23T04:58:37.408Z,91.39
2016-05-23T04:59:37.457Z,91.39
2016-05-23T05:00:37.320Z,90.91
2016-05-23T05:01:37.525Z,90.14
2016-05-23T05:02:37.560Z,89.86
2016-05-23T05:03:37.593Z,90.14
2016-05-23T05:04:37.643Z,90.14
2016-05-23T05:05:37.677Z,89.86
2016-05-23T05:06:37.711Z,89.66
2016-05-23T05:07:37.745Z,89.76
2016-05-23T05:08:37.779Z,89.57
2016-05-23T05:09:37.829Z,89.86
2016-05-23T05:10:37.862Z,90.14
2016-05-23T05:11:37.896Z,89.57
2016-05-23T05:12:37.930Z,90.05
2016-05-23T05:13:37.964Z,89.86
2016-05-23T05:14:38.014Z,89.86
2016-05-23T05:15:38.047Z,89.66
2016-05-23T05:16:38.082Z,89.95
2016-05-23T05:17:38.115Z,89.86
2016-05-23T05:18:38.150Z,90.33
2016-05-23T05:19:38.183Z,90.23
2016-05-23T05:20:38.218Z,90.23
2016-05-23T05:21:38.267Z,90.43
2016-05-23T05:22:38.300Z,90.14
2016-05-23T05:23:38.195Z,90.14
2016-05-23T05:24:38.384Z,90.14
2016-05-23T05:25:38.402Z,90.72
2016-05-23T05:26:38.453Z,90.53
2016-05-23T05:27:38.486Z,90.62
2016-05-23T05:28:38.536Z,90.53
2016-05-23T05:29:38.414Z,90.81
2016-05-23T05:30:38.588Z,90.62
2016-05-23T05:31:38.638Z,90.53
2016-05-23T05:32:38.671Z,90.53
2016-05-23T05:33:38.549Z,90.14
2016-05-23T05:34:38.755Z,90.72
2016-05-23T05:35:38.789Z,90.33
2016-05-23T05:36:39.026Z,90.72
2016-05-23T05:37:38.701Z,90.23
2016-05-23T05:38:38.891Z,90.28
2016-05-23T05:39:38.925Z,90.43
2016-05-23T05:40:38.802Z,89.95
2016-05-23T05:41:39.008Z,89.95
2016-05-23T05:42:39.043Z,90.91
2016-05-23T05:43:39.076Z,89.71
2016-05-23T05:44:39.110Z,89.86
2016-05-23T05:45:39.143Z,90.33
2016-05-23T05:46:39.193Z,90.14
2016-05-23T05:47:39.071Z,90.14
2016-05-23T05:48:39.261Z,90.91
2016-05-23T05:49:39.295Z,91.29
2016-05-23T05:50:39.329Z,91.67
2016-05-23T05:51:39.395Z,91.77
2016-05-23T05:52:39.412Z,92.15
2016-05-23T05:53:39.447Z,91.19
2016-05-23T05:54:39.481Z,92.44
2016-05-23T05:55:39.530Z,92.44
2016-05-23T05:56:39.564Z,92.44
2016-05-23T05:57:39.598Z,91.67
2016-05-23T05:58:39.633Z,91.49
2016-05-23T05:59:39.666Z,91.58
2016-05-23T06:00:39.700Z,91.67
2016-05-23T06:01:39.750Z,91.67
2016-05-23T06:02:39.784Z,90.91
2016-05-23T06:03:39.817Z,90.62
2016-05-23T06:04:39.852Z,90.81
2016-05-23T06:05:39.730Z,90.62
2016-05-23T06:06:39.763Z,90.81
2016-05-23T06:07:39.968Z,89.76
2016-05-23T06:08:40.002Z,90.05
2016-05-23T06:09:40.052Z,90.23
2016-05-23T06:10:40.086Z,89.76
2016-05-23T06:11:40.104Z,90.33
2016-05-23T06:12:40.154Z,90.53
2016-05-23T06:13:40.187Z,89.18
2016-05-23T06:14:40.222Z,89.47
2016-05-23T06:15:40.256Z,89.47
2016-05-23T06:16:40.290Z,88.7
2016-05-23T06:17:40.324Z,89.47
2016-05-23T06:18:40.358Z,88.99
2016-05-23T06:19:40.407Z,88.9
2016-05-23T06:20:40.442Z,88.8
2016-05-23T06:21:40.476Z,89.66
2016-05-23T06:22:40.509Z,89.86
2016-05-23T06:23:40.402Z,89.95
2016-05-23T06:24:40.592Z,89.18
2016-05-23T06:25:40.626Z,88.8
2016-05-23T06:26:40.661Z,89.28
2016-05-23T06:27:40.694Z,89.86
2016-05-23T06:28:40.744Z,89.28
2016-05-23T06:29:40.872Z,90.05
2016-05-23T06:30:40.656Z,89.95
2016-05-23T06:31:40.846Z,89.66
2016-05-23T06:32:40.895Z,89.47
2016-05-23T06:33:40.930Z,89.18
2016-05-23T06:34:40.964Z,88.9
2016-05-23T06:35:40.997Z,89.28
2016-05-23T06:36:41.031Z,88.99
2016-05-23T06:37:41.066Z,88.8
2016-05-23T06:38:41.116Z,88.51
2016-05-23T06:39:41.148Z,88.32
2016-05-23T06:40:41.183Z,87.27
2016-05-23T06:41:41.216Z,87.65
2016-05-23T06:42:41.266Z,87.55
2016-05-23T06:43:41.143Z,88.27
2016-05-23T06:44:41.334Z,87.7
2016-05-23T06:45:41.368Z,88.32
2016-05-23T06:46:41.246Z,88.8
2016-05-23T06:47:41.436Z,88.99
2016-05-23T06:48:41.511Z,89.18
2016-05-23T06:49:41.586Z,89.28
2016-05-23T06:50:41.474Z,88.8
2016-05-23T06:51:41.689Z,89.37
2016-05-23T06:52:41.764Z,89.66
2016-05-23T06:53:41.650Z,89.66
2016-05-23T06:54:41.693Z,89.28
2016-05-23T06:55:41.893Z,88.23
2016-05-23T06:56:41.937Z,88.7
2016-05-23T06:57:41.823Z,87.55
2016-05-23T06:58:42.032Z,87.46
2016-05-23T06:59:42.521Z,88.51
2016-05-23T07:00:42.107Z,88.32
2016-05-23T07:01:42.143Z,87.94
2016-05-23T07:02:42.180Z,87.94
2016-05-23T07:03:42.059Z,88.32
2016-05-23T07:04:42.266Z,89.37
2016-05-23T07:05:42.300Z,88.8
2016-05-23T07:06:42.336Z,89.28
2016-05-23T07:07:42.371Z,89.37
2016-05-23T07:08:42.421Z,89.57
2016-05-23T07:09:42.455Z,89.18
2016-05-23T07:10:42.334Z,89.18
2016-05-23T07:11:42.524Z,89.09
2016-05-23T07:12:42.558Z,89.09
2016-05-23T07:13:42.593Z,88.7
2016-05-23T07:14:42.924Z,88.8
2016-05-23T07:15:42.692Z,88.61
2016-05-23T07:16:42.711Z,88.8
2016-05-23T07:17:42.746Z,88.99
2016-05-23T07:18:42.795Z,88.9
2016-05-23T07:19:42.829Z,89.28
2016-05-23T07:20:42.863Z,88.7
2016-05-23T07:21:42.741Z,88.7
2016-05-23T07:22:42.932Z,89.28
2016-05-23T07:23:42.980Z,88.51
2016-05-23T07:24:43.015Z,89.47
2016-05-23T07:25:43.048Z,89.95
2016-05-23T07:26:43.082Z,89.66
2016-05-23T07:27:43.131Z,90.91
2016-05-23T07:28:43.165Z,90.23
2016-05-23T07:29:43.200Z,89.86
2016-05-23T07:30:43.234Z,89.66
2016-05-23T07:31:43.267Z,89.57
2016-05-23T07:32:43.161Z,89.86
2016-05-23T07:33:43.350Z,90.72
2016-05-23T07:34:43.385Z,91.1
2016-05-23T07:35:43.262Z,90.33
2016-05-23T07:36:43.453Z,90.43
2016-05-23T07:37:43.503Z,91.1
2016-05-23T07:38:43.537Z,91.1
2016-05-23T07:39:43.570Z,91.1
2016-05-23T07:40:43.605Z,91.1
2016-05-23T07:41:43.653Z,90.53
2016-05-23T07:42:43.688Z,90.62
2016-05-23T07:43:43.549Z,90.23
2016-05-23T07:44:43.866Z,89.86
2016-05-23T07:45:43.805Z,91.1
2016-05-23T07:46:43.823Z,90.62
2016-05-23T07:47:43.857Z,90.91
2016-05-23T07:48:43.751Z,91.1
2016-05-23T07:49:43.940Z,91.1
2016-05-23T07:50:43.975Z,90.72
2016-05-23T07:51:44.009Z,90.91
2016-05-23T07:52:44.043Z,90.53
2016-05-23T07:53:44.076Z,91
2016-05-23T07:54:44.126Z,90.72
2016-05-23T07:55:44.160Z,90.53
2016-05-23T07:56:44.194Z,90.91
2016-05-23T07:57:44.228Z,91
2016-05-23T07:58:44.278Z,90.53
2016-05-23T07:59:45.186Z,90.91
2016-05-23T08:00:44.346Z,91.1
2016-05-23T08:01:44.379Z,90.81
2016-05-23T08:02:44.429Z,90.72
2016-05-23T08:03:44.447Z,90.62
2016-05-23T08:04:44.497Z,90.53
2016-05-23T08:05:44.375Z,90.09
2016-05-23T08:06:44.565Z,90.38
2016-05-23T08:07:44.598Z,89.76
2016-05-23T08:08:44.633Z,89.95
2016-05-23T08:09:44.698Z,90
2016-05-23T08:10:44.717Z,90.23
2016-05-23T08:11:44.750Z,90.33
2016-05-23T08:12:44.784Z,90.53
2016-05-23T08:13:44.834Z,90.33
2016-05-23T08:14:44.727Z,90.62
2016-05-23T08:15:44.901Z,90.81
2016-05-23T08:16:44.951Z,90.81
2016-05-23T08:17:44.969Z,90.72
2016-05-23T08:18:45.003Z,88.51
2016-05-23T08:19:44.897Z,88.8
2016-05-23T08:20:45.102Z,89.66
2016-05-23T08:21:45.121Z,89.18
2016-05-23T08:22:45.170Z,88.17
2016-05-23T08:23:45.204Z,87.31
2016-05-23T08:24:45.237Z,87.31
2016-05-23T08:25:45.272Z,86.83
2016-05-23T08:26:45.321Z,86.25
2016-05-23T08:27:45.356Z,86.07
2016-05-23T08:28:45.233Z,85.88
2016-05-23T08:29:45.423Z,85.01
2016-05-23T08:30:45.473Z,84.86
2016-05-23T08:31:45.507Z,84.91
2016-05-23T08:32:45.540Z,84.09
2016-05-23T08:33:45.606Z,85.34
2016-05-23T08:34:45.625Z,85.39
2016-05-23T08:35:45.659Z,85.53
2016-05-23T08:36:45.692Z,84.95
2016-05-23T08:37:45.726Z,84.28
2016-05-23T08:38:45.776Z,84
2016-05-23T08:39:45.809Z,84.58
2016-05-23T08:40:45.859Z,83.81
2016-05-23T08:41:45.736Z,83.61
2016-05-23T08:42:45.771Z,83.91
2016-05-23T08:43:45.961Z,84.58
2016-05-23T08:44:45.995Z,84.95
2016-05-23T08:45:46.045Z,84.58
2016-05-23T08:46:46.078Z,84.58
2016-05-23T08:47:46.144Z,85.3
2016-05-23T08:48:46.163Z,84.91
2016-05-23T08:49:46.196Z,85.21
2016-05-23T08:50:46.229Z,85.83
2016-05-23T08:51:46.263Z,86.98
2016-05-23T08:52:46.298Z,87.17
2016-05-23T08:53:46.191Z,87.94
2016-05-23T08:54:46.382Z,88.66
2016-05-23T08:55:46.416Z,88.85
2016-05-23T08:56:46.465Z,88.85
2016-05-23T08:57:46.499Z,88.28
2016-05-23T08:58:46.548Z,87.8
2016-05-23T08:59:46.582Z,87.99
2016-05-23T09:00:46.601Z,88.09
2016-05-23T09:01:46.650Z,87.99
2016-05-23T09:02:46.684Z,87.61
2016-05-23T09:03:46.734Z,87.99
2016-05-23T09:04:46.768Z,87.99
2016-05-23T09:05:46.801Z,87.94
2016-05-23T09:06:46.836Z,87.03
2016-05-23T09:07:46.870Z,87.32
2016-05-23T09:08:46.903Z,88.09
2016-05-23T09:09:46.953Z,88.56
2016-05-23T09:10:46.986Z,87.9
2016-05-23T09:11:47.020Z,88.09
2016-05-23T09:12:47.070Z,87.9
2016-05-23T09:13:47.105Z,87.51
2016-05-23T09:14:47.311Z,87.32
2016-05-23T09:15:47.172Z,87.23
2016-05-23T09:16:47.222Z,86.84
2016-05-23T09:17:47.241Z,86.74
2016-05-23T09:18:47.290Z,86.46
2016-05-23T09:19:47.324Z,87.03
2016-05-23T09:20:47.358Z,87.18
2016-05-23T09:21:47.391Z,87.56
2016-05-23T09:22:48.660Z,87.37
2016-05-23T09:23:47.474Z,87.23
2016-05-23T09:24:47.493Z,87.23
2016-05-23T09:25:47.543Z,86.65
2016-05-23T09:26:47.577Z,86.17
2016-05-23T09:27:47.610Z,86.84
2016-05-23T09:28:47.645Z,86.27
2016-05-23T09:29:47.694Z,85.69
2016-05-23T09:30:47.571Z,85.5
2016-05-23T09:31:47.762Z,85.98
2016-05-23T09:32:47.812Z,85.69
2016-05-23T09:33:47.829Z,85.69
2016-05-23T09:34:47.879Z,85.79
2016-05-23T09:35:47.914Z,86.13
2016-05-23T09:36:47.947Z,85.84
2016-05-23T09:37:47.981Z,85.17
2016-05-23T09:38:47.859Z,84.79
2016-05-23T09:39:48.064Z,85.41
2016-05-23T09:40:48.098Z,84.92
2016-05-23T09:41:48.117Z,84.45
2016-05-23T09:42:48.167Z,85.12
2016-05-23T09:43:48.201Z,84.92
2016-05-23T09:44:48.281Z,83.39
2016-05-23T09:45:48.284Z,82.92
2016-05-23T09:46:48.318Z,82.82
2016-05-23T09:47:48.353Z,83.3
2016-05-23T09:48:48.386Z,82.76
2016-05-23T09:49:48.435Z,83.01
2016-05-23T09:50:48.454Z,82.43
2016-05-23T09:51:48.503Z,81.86
2016-05-23T09:52:48.538Z,81.96
2016-05-23T09:53:48.571Z,81.71
2016-05-23T09:54:48.449Z,82.48
2016-05-23T09:55:48.639Z,81.33
2016-05-23T09:56:48.673Z,81.04
2016-05-23T09:57:48.723Z,81.62
2016-05-23T09:58:48.601Z,81.9
2016-05-23T09:59:49.166Z,81.9
2016-05-23T10:00:48.824Z,82.06
2016-05-23T10:01:48.859Z,82.67
2016-05-23T10:02:48.908Z,82.76
2016-05-23T10:03:48.943Z,81.62
2016-05-23T10:04:48.976Z,81.48
2016-05-23T10:05:49.010Z,82.34
2016-05-23T10:06:49.043Z,82.73
2016-05-23T10:07:49.093Z,81.9
2016-05-23T10:08:49.127Z,81.9
2016-05-23T10:09:49.005Z,81.71
2016-05-23T10:10:49.211Z,82.38
2016-05-23T10:11:49.261Z,82.19
2016-05-23T10:12:49.278Z,82
2016-05-23T10:13:49.312Z,80.94
2016-05-23T10:14:49.347Z,81.81
2016-05-23T10:15:49.381Z,80.66
2016-05-23T10:16:49.430Z,81.23
2016-05-23T10:17:49.307Z,80.85
2016-05-23T10:18:49.498Z,81.43
2016-05-23T10:19:49.532Z,80.76
2016-05-23T10:20:49.566Z,81.23
2016-05-23T10:21:49.630Z,81.13
2016-05-23T10:22:49.649Z,80.94
2016-05-23T10:23:49.699Z,80.85
2016-05-23T10:24:49.717Z,81.13
2016-05-23T10:25:49.594Z,81.13
2016-05-23T10:26:49.801Z,81.04
2016-05-23T10:27:49.679Z,81.13
2016-05-23T10:28:49.713Z,81.04
2016-05-23T10:29:49.887Z,81.04
2016-05-23T10:30:49.952Z,80.94
2016-05-23T10:31:49.986Z,81.04
2016-05-23T10:32:50.036Z,80.66
2016-05-23T10:33:50.053Z,80.37
2016-05-23T10:34:50.087Z,80.18
2016-05-23T10:35:50.137Z,80.37
2016-05-23T10:36:50.171Z,80.37
2016-05-23T10:37:50.205Z,80.08
2016-05-23T10:38:50.239Z,80.47
2016-05-23T10:39:50.289Z,80.27
2016-05-23T10:40:50.323Z,78.27
2016-05-23T10:41:50.200Z,78.55
2016-05-23T10:42:50.390Z,79.41
2016-05-23T10:43:50.424Z,78.49
2016-05-23T10:44:50.474Z,79.26
2016-05-23T10:45:50.508Z,78.88
2016-05-23T10:46:50.542Z,77.92
2016-05-23T10:47:50.575Z,76.96
2016-05-23T10:48:50.610Z,77.25
2016-05-23T10:49:50.675Z,77.34
2016-05-23T10:50:50.709Z,76.77
2016-05-23T10:51:50.727Z,78.2
2016-05-23T10:52:50.777Z,77.44
2016-05-23T10:53:50.811Z,78.4
2016-05-23T10:54:50.845Z,78.59
2016-05-23T10:55:50.894Z,79.32
2016-05-23T10:56:50.927Z,78.45
2016-05-23T10:57:50.962Z,79.51
2016-05-23T10:58:50.996Z,79.7
2016-05-23T10:59:50.890Z,79.89
2016-05-23T11:00:51.079Z,79.32
2016-05-23T11:01:51.113Z,79.51
2016-05-23T11:02:51.148Z,80.47
2016-05-23T11:03:51.182Z,80.66
2016-05-23T11:04:51.231Z,79.51
2016-05-23T11:05:51.265Z,81
2016-05-23T11:06:51.299Z,81
2016-05-23T11:07:51.333Z,80.9
2016-05-23T11:08:51.367Z,80.81
2016-05-23T11:09:51.417Z,81.1
2016-05-23T11:10:51.450Z,80.81
2016-05-23T11:11:51.484Z,80.52
2016-05-23T11:12:51.518Z,80.9
2016-05-23T11:13:51.567Z,81.38
2016-05-23T11:14:51.617Z,80.62
2016-05-23T11:15:51.636Z,80.47
2016-05-23T11:16:51.670Z,81.1
2016-05-23T11:17:51.720Z,80.43
2016-05-23T11:18:51.753Z,79.75
2016-05-23T11:19:51.631Z,79.18
2016-05-23T11:20:51.821Z,79.32
2016-05-23T11:21:51.855Z,78.64
2016-05-23T11:22:51.905Z,79.32
2016-05-23T11:23:51.938Z,78.55
2016-05-23T11:24:51.972Z,78.55
2016-05-23T11:25:52.022Z,77.5
2016-05-23T11:26:52.056Z,77.21
2016-05-23T11:27:52.074Z,77.97
2016-05-23T11:28:52.124Z,77.97
2016-05-23T11:29:52.158Z,77.82
2016-05-23T11:30:52.191Z,77.63
2016-05-23T11:31:52.226Z,78.27
2016-05-23T11:32:52.275Z,78.02
2016-05-23T11:33:52.310Z,77.34
2016-05-23T11:34:52.343Z,77.63
2016-05-23T11:35:52.377Z,77.34
2016-05-23T11:36:52.271Z,77.44
2016-05-23T11:37:52.304Z,76.86
2016-05-23T11:38:52.510Z,77.63
2016-05-23T11:39:52.543Z,77.15
2016-05-23T11:40:52.562Z,76.77
2016-05-23T11:41:52.612Z,77.21
2016-05-23T11:42:52.645Z,78.07
2016-05-23T11:43:52.539Z,76.39
2016-05-23T11:44:52.729Z,75.33
2016-05-23T11:45:52.778Z,73.93
2016-05-23T11:46:52.812Z,73.16
2016-05-23T11:47:52.847Z,73.55
2016-05-23T11:48:52.880Z,74.12
2016-05-23T11:49:52.914Z,74.57
2016-05-23T11:50:52.948Z,76.15
2016-05-23T11:51:52.983Z,75.87
2016-05-23T11:52:53.033Z,75.43
2016-05-23T11:53:53.066Z,75.96
2016-05-23T11:54:53.100Z,75.48
2016-05-23T11:55:53.149Z,76.39
2016-05-23T11:56:53.183Z,75.33
2016-05-23T11:57:53.217Z,75.04
2016-05-23T11:58:53.267Z,73.7
2016-05-23T11:59:53.942Z,73.74
2016-05-23T12:00:53.334Z,73.45
2016-05-23T12:01:53.212Z,72.3
2016-05-23T12:02:53.418Z,71.76
2016-05-23T12:03:53.452Z,71.57
2016-05-23T12:04:53.486Z,71.47
2016-05-23T12:05:53.521Z,71.28
2016-05-23T12:06:53.570Z,71.47
2016-05-23T12:07:53.604Z,71.8
2016-05-23T12:08:53.482Z,70.55
2016-05-23T12:09:53.688Z,71.31
2016-05-23T12:10:53.721Z,71.28
2016-05-23T12:11:53.598Z,72.24
2016-05-23T12:12:53.648Z,72.88
2016-05-23T12:13:53.839Z,72.49
2016-05-23T12:14:54.107Z,72.97
2016-05-23T12:15:53.922Z,72.68
2016-05-23T12:16:53.956Z,72.68
2016-05-23T12:17:53.989Z,73.55
2016-05-23T12:18:54.039Z,73.83
2016-05-23T12:19:53.917Z,73.26
2016-05-23T12:20:54.108Z,73.45
2016-05-23T12:21:54.157Z,73.26
2016-05-23T12:22:54.206Z,73.55
2016-05-23T12:23:54.241Z,73.35
2016-05-23T12:24:54.274Z,72.39
2016-05-23T12:25:54.308Z,72.63
2016-05-23T12:26:54.342Z,71.86
2016-05-23T12:27:54.377Z,71.95
2016-05-23T12:28:54.425Z,71.86
2016-05-23T12:29:54.475Z,71.47
2016-05-23T12:30:54.510Z,71.28
2016-05-23T12:31:54.543Z,71.47
2016-05-23T12:32:54.577Z,71.37
2016-05-23T12:33:54.610Z,71.19
2016-05-23T12:34:54.660Z,71.86
2016-05-23T12:35:54.694Z,71.92
2016-05-23T12:36:54.744Z,71.86
2016-05-23T12:37:54.779Z,72.05
2016-05-23T12:38:54.812Z,71.86
2016-05-23T12:39:54.845Z,71.95
2016-05-23T12:40:54.879Z,71.66
2016-05-23T12:41:54.929Z,72.14
2016-05-23T12:42:54.807Z,71.86
2016-05-23T12:43:54.920Z,72.05
2016-05-23T12:44:55.218Z,71.66
2016-05-23T12:45:55.081Z,72.24
2016-05-23T12:46:55.131Z,72.43
2016-05-23T12:47:55.165Z,72.43
2016-05-23T12:48:55.214Z,72.14
2016-05-23T12:49:55.356Z,73.2
2016-05-23T12:50:55.282Z,73.26
2016-05-23T12:51:55.316Z,72.59
2016-05-23T12:52:55.381Z,73.07
2016-05-23T12:53:55.400Z,72.72
2016-05-23T12:54:55.433Z,73.77
2016-05-23T12:55:55.497Z,72.97